x

Destruction Island, Wa (desw1) Weather Station

1:00am - Sun 23rd Apr 2017 All times are PDT. -7 hours from GMT.

  • Wind
    14mph, 16mph gusts
  • Air Temp 50°f
  • Sea Pressure 1013.9mb
  • Destruction Island, Wa
  • Destruction Island, Wa

More Historic Weather Station data

Upgrade to MSW Pro to gain access to the past 30 days of data for over 8000 Wavebouys and Weather Stations around the globe.

Join Pro

Comparision Forecast

View Surf forecast
   
Sun 04/23 1:00am 14 16 mph 1013.9mb 50f
12:00am 14
mph
1013.8mb 49f
Sat 04/22 11:00pm 16 17 mph 1013.8mb 49f
10:00pm 17 18 mph 1013.6mb 49f
9:00pm 23 26 mph 1013.4mb 50f
8:00pm 22 24 mph 1012.9mb 50f
7:00pm 24 26 mph 1012.5mb 50f
6:00pm 29 32 mph 1012.2mb 50f
5:00pm 32 36 mph 1011.8mb 51f
4:00pm 34 38 mph 1011.2mb 51f
3:00pm 33 37 mph 1010.2mb 51f
2:00pm 30 34 mph 1008.4mb 51f
1:00pm 31 34 mph 1007.6mb 51f
12:00pm 25 28 mph 1008mb 50f
11:00am 32 37 mph 1008.2mb 49f
10:00am 28 31 mph 1008.6mb 49f
9:00am 32 38 mph 1008.2mb 50f
8:00am 30 36 mph 1006.4mb 55f
7:00am 6 8 mph 1006mb 53f
6:00am 8 10 mph 1005.6mb 54f
5:00am 1 6 mph 1006.5mb 56f
4:00am 5 7 mph 1007.5mb 56f
3:00am 13 17 mph 1008.5mb 55f
2:00am 9 10 mph 1010mb 56f
1:00am 11 14 mph 1011.2mb 54f
12:00am 11 13 mph 1011.8mb 55f
Fri 04/21 11:00pm 15 16 mph 1013.1mb 54f
10:00pm 15 17 mph 1014.2mb 55f
9:00pm 16 17 mph 1015.2mb 57f
8:00pm 9
mph
1016.5mb 54f
7:00pm 7
mph
1017.7mb 53f
6:00pm 8 9 mph 1018.7mb 52f
5:00pm 10 11 mph 1019.9mb 53f
4:00pm 11 13 mph 1020.5mb 54f
3:00pm 11 13 mph 1021.7mb 54f
2:00pm 7
mph
1023.1mb 53f
1:00pm 2 5 mph 1024.3mb 55f
12:00pm 3
mph
1025.5mb 53f
11:00am 2 3 mph 1026.7mb 51f
10:00am 2 3 mph 1027.7mb 51f
9:00am 6 7 mph 1028.2mb 48f
8:00am 9 10 mph 1028.6mb 45f
7:00am 14 16 mph 1029mb 44f
6:00am 11 13 mph 1029mb 43f
5:00am 9 10 mph 1029.2mb 45f
4:00am 9 10 mph 1029.2mb 46f
3:00am 10 11 mph 1029.4mb 47f
2:00am 10 11 mph 1029.6mb 48f
1:00am 10 11 mph 1029.6mb 48f
12:00am 11 13 mph 1029.6mb 48f
Thu 04/20 11:00pm 9 10 mph 1029.5mb 49f
10:00pm 15 16 mph 1029.1mb 49f
9:00pm 14 17 mph 1028.2mb 49f
8:00pm 8 9 mph 1027.6mb 50f
7:00pm 11 13 mph 1027mb 50f
6:00pm 6
mph
1026.5mb 50f
5:00pm 13 14 mph 1026.4mb 51f
4:00pm 14 16 mph 1025.8mb 52f
3:00pm 16
mph
1025.2mb 51f
2:00pm 11 17 mph 1024.3mb 50f
1:00pm 16 18 mph 1023.9mb 50f
12:00pm 15 16 mph 1023.4mb 51f
11:00am 14 16 mph 1022.7mb 51f
10:00am 17 20 mph 1021.9mb 49f
9:00am 17 18 mph 1021mb 48f
8:00am 20 21 mph 1020.4mb 48f
7:00am 17 18 mph 1019.9mb 48f
6:00am 13
mph
1019.2mb 48f
5:00am 15 17 mph 1018.8mb 48f
4:00am 15
mph
1018.4mb 49f
3:00am 17 20 mph 1018.1mb 50f
2:00am 22 25 mph 1017.9mb 50f
1:00am 23 25 mph 1017.4mb 50f
12:00am 22 23 mph 1017.1mb 50f
Wed 04/19 11:00pm 26 28 mph 1016.8mb 50f
10:00pm 28 30 mph 1016.6mb 50f
9:00pm 26 31 mph 1016mb 51f
8:00pm 22 24 mph 1015.5mb 49f
7:00pm 21 24 mph 1015mb 52f
6:00pm 25 31 mph 1015.4mb 52f
5:00pm 26 32 mph 1015.7mb 52f
4:00pm 29 37 mph 1015.5mb 52f